createdAt,value
2016-03-18T00:00:53.428Z,2.09
2016-03-18T00:01:54.820Z,2.07
2016-03-18T00:02:54.074Z,2.06
2016-03-18T00:03:53.420Z,2.06
2016-03-18T00:04:53.406Z,2.14
2016-03-18T00:05:53.503Z,2.17
2016-03-18T00:06:53.278Z,2.1
2016-03-18T00:07:53.389Z,2.09
2016-03-18T00:08:53.346Z,2.09
2016-03-18T00:09:53.333Z,2.07
2016-03-18T00:10:53.335Z,2.03
2016-03-18T00:11:53.323Z,2
2016-03-18T00:12:53.309Z,2.03
2016-03-18T00:13:53.297Z,2.03
2016-03-18T00:14:53.314Z,2.05
2016-03-18T00:15:53.286Z,2.06
2016-03-18T00:16:53.258Z,2.07
2016-03-18T00:17:53.276Z,2.05
2016-03-18T00:18:53.232Z,2.1
2016-03-18T00:19:53.234Z,2.09
2016-03-18T00:20:53.222Z,2.06
2016-03-18T00:21:53.318Z,2.07
2016-03-18T00:22:53.211Z,2.1
2016-03-18T00:23:53.214Z,2.07
2016-03-18T00:24:53.169Z,2.09
2016-03-18T00:25:53.172Z,2.1
2016-03-18T00:26:53.175Z,2.07
2016-03-18T00:27:53.162Z,2.09
2016-03-18T00:28:53.134Z,2.05
2016-03-18T00:29:53.121Z,2.06
2016-03-18T00:30:53.123Z,2.03
2016-03-18T00:31:53.112Z,2.1
2016-03-18T00:32:53.083Z,2.1
2016-03-18T00:33:53.086Z,2.06
2016-03-18T00:34:53.057Z,2.07
2016-03-18T00:35:53.075Z,2.06
2016-03-18T00:36:53.141Z,2.06
2016-03-18T00:37:53.050Z,2.06
2016-03-18T00:38:53.037Z,2.1
2016-03-18T00:39:53.040Z,2.16
2016-03-18T00:40:53.010Z,2.18
2016-03-18T00:41:52.998Z,2.14
2016-03-18T00:42:53.000Z,2.1
2016-03-18T00:43:52.971Z,2.14
2016-03-18T00:44:52.803Z,2.09
2016-03-18T00:45:52.961Z,2.05
2016-03-18T00:46:52.948Z,2.06
2016-03-18T00:47:52.951Z,2.14
2016-03-18T00:48:52.923Z,2.14
2016-03-18T00:49:52.926Z,2.14
2016-03-18T00:50:52.912Z,2.14
2016-03-18T00:51:52.900Z,2.16
2016-03-18T00:52:52.886Z,2.09
2016-03-18T00:53:52.873Z,2.16
2016-03-18T00:54:52.892Z,2.18
2016-03-18T00:55:52.847Z,2.16
2016-03-18T00:56:52.851Z,2.16
2016-03-18T00:57:52.822Z,2.16
2016-03-18T00:58:52.841Z,2.12
2016-03-18T00:59:52.797Z,2.14
2016-03-18T01:00:52.800Z,2.1
2016-03-18T01:01:52.802Z,2.18
2016-03-18T01:02:52.789Z,2.07
2016-03-18T01:03:52.775Z,2.06
2016-03-18T01:04:52.763Z,2.07
2016-03-18T01:05:52.953Z,2.09
2016-03-18T01:08:53.778Z,2.09
2016-03-18T01:09:53.109Z,2.12
2016-03-18T01:10:54.096Z,2.07
2016-03-18T01:11:52.676Z,2.1
2016-03-18T01:12:52.680Z,2.07
2016-03-18T01:14:52.857Z,2.07
2016-03-18T01:15:52.657Z,2.03
2016-03-18T01:16:53.409Z,2.07
2016-03-18T01:17:52.646Z,2.03
2016-03-18T01:18:53.898Z,2.07
2016-03-18T01:19:54.198Z,2.06
2016-03-18T01:20:53.701Z,2.05
2016-03-18T01:21:53.032Z,2.09
2016-03-18T01:22:52.566Z,2.03
2016-03-18T01:23:52.553Z,2.09
2016-03-18T01:24:52.556Z,2.07
2016-03-18T01:25:52.527Z,2.09
2016-03-18T01:26:52.545Z,2.02
2016-03-18T01:27:52.502Z,2.09
2016-03-18T01:28:52.504Z,2.06
2016-03-18T01:29:52.491Z,2.05
2016-03-18T01:30:52.493Z,2.03
2016-03-18T01:31:52.480Z,2.07
2016-03-18T01:32:52.468Z,2.06
2016-03-18T01:33:52.438Z,2.05
2016-03-18T01:34:52.442Z,2.03
2016-03-18T01:35:52.429Z,2
2016-03-18T01:36:52.416Z,1.95
2016-03-18T01:37:52.403Z,2.05
2016-03-18T01:38:52.406Z,2.05
2016-03-18T01:39:52.393Z,2.03
2016-03-18T01:40:52.380Z,2.1
2016-03-18T01:41:52.382Z,2.09
2016-03-18T01:42:52.370Z,2.09
2016-03-18T01:43:52.373Z,2.05
2016-03-18T01:44:52.343Z,2.05
2016-03-18T01:45:52.346Z,1.98
2016-03-18T01:46:52.333Z,2.02
2016-03-18T01:47:52.305Z,2.06
2016-03-18T01:48:52.308Z,1.95
2016-03-18T01:49:52.278Z,2.07
2016-03-18T01:50:52.282Z,2.03
2016-03-18T01:51:52.253Z,2.09
2016-03-18T01:52:52.240Z,2.06
2016-03-18T01:53:52.228Z,2.05
2016-03-18T01:54:52.277Z,2
2016-03-18T01:55:52.264Z,1.99
2016-03-18T01:56:52.204Z,1.91
2016-03-18T01:57:52.223Z,1.88
2016-03-18T01:58:52.178Z,1.95
2016-03-18T01:59:52.213Z,1.91
2016-03-18T02:00:52.183Z,1.87
2016-03-18T02:01:52.155Z,1.91
2016-03-18T02:02:52.158Z,1.91
2016-03-18T02:03:52.161Z,1.87
2016-03-18T02:04:52.132Z,1.87
2016-03-18T02:05:54.072Z,1.8
2016-03-18T02:06:52.122Z,1.83
2016-03-18T02:07:52.110Z,1.87
2016-03-18T02:08:52.096Z,1.77
2016-03-18T02:09:52.068Z,1.79
2016-03-18T02:10:52.054Z,1.87
2016-03-18T02:11:52.057Z,1.8
2016-03-18T02:12:52.043Z,1.83
2016-03-18T02:13:52.032Z,1.83
2016-03-18T02:14:52.018Z,1.76
2016-03-18T02:15:52.021Z,1.8
2016-03-18T02:16:51.993Z,1.77
2016-03-18T02:17:52.012Z,1.83
2016-03-18T02:18:51.967Z,1.83
2016-03-18T02:19:51.969Z,1.76
2016-03-18T02:20:51.956Z,1.8
2016-03-18T02:21:51.959Z,1.72
2016-03-18T02:22:51.931Z,1.76
2016-03-18T02:23:52.481Z,1.77
2016-03-18T02:24:51.936Z,1.69
2016-03-18T02:25:51.907Z,1.73
2016-03-18T02:26:51.894Z,1.76
2016-03-18T02:27:53.038Z,1.79
2016-03-18T02:28:52.353Z,1.77
2016-03-18T02:29:51.855Z,1.76
2016-03-18T02:30:52.186Z,1.77
2016-03-18T02:31:52.424Z,1.73
2016-03-18T02:32:52.629Z,1.72
2016-03-18T02:33:53.132Z,1.69
2016-03-18T02:34:52.385Z,1.68
2016-03-18T02:35:51.902Z,1.68
2016-03-18T02:36:52.531Z,1.7
2016-03-18T02:37:53.705Z,1.55
2016-03-18T02:38:51.771Z,1.63
2016-03-18T02:39:51.774Z,1.6
2016-03-18T02:40:52.626Z,1.62
2016-03-18T02:41:52.082Z,1.62
2016-03-18T02:42:54.304Z,1.6
2016-03-18T02:43:51.979Z,1.54
2016-03-18T02:44:51.669Z,1.65
2016-03-18T02:45:51.656Z,1.55
2016-03-18T02:46:51.659Z,1.5
2016-03-18T02:47:51.661Z,1.58
2016-03-18T02:48:51.634Z,1.52
2016-03-18T02:49:51.636Z,1.6
2016-03-18T02:50:51.607Z,1.55
2016-03-18T02:51:51.610Z,1.48
2016-03-18T02:52:51.582Z,1.41
2016-03-18T02:53:51.568Z,1.41
2016-03-18T02:54:51.571Z,1.41
2016-03-18T02:55:51.574Z,1.42
2016-03-18T02:56:51.561Z,1.48
2016-03-18T02:57:51.548Z,1.37
2016-03-18T02:58:51.550Z,1.37
2016-03-18T02:59:51.522Z,1.37
2016-03-18T03:00:51.508Z,1.32
2016-03-18T03:01:51.496Z,1.4
2016-03-18T03:02:51.483Z,1.3
2016-03-18T03:03:51.469Z,1.3
2016-03-18T03:04:51.472Z,1.33
2016-03-18T03:05:51.461Z,1.34
2016-03-18T03:06:51.447Z,1.32
2016-03-18T03:07:51.435Z,1.36
2016-03-18T03:08:51.421Z,1.27
2016-03-18T03:09:51.393Z,1.24
2016-03-18T03:10:51.395Z,1.33
2016-03-18T03:11:51.399Z,1.3
2016-03-18T03:12:51.385Z,1.23
2016-03-18T03:13:51.372Z,1.29
2016-03-18T03:14:51.374Z,1.29
2016-03-18T03:15:51.331Z,1.18
2016-03-18T03:16:51.348Z,1.2
2016-03-18T03:17:51.305Z,1.24
2016-03-18T03:18:51.323Z,1.23
2016-03-18T03:19:51.295Z,1.14
2016-03-18T03:20:51.298Z,1.14
2016-03-18T03:21:51.269Z,1.12
2016-03-18T03:22:51.271Z,1.16
2016-03-18T03:23:51.259Z,1.16
2016-03-18T03:24:51.245Z,1.22
2016-03-18T03:25:51.248Z,1.14
2016-03-18T03:26:51.251Z,1.02
2016-03-18T03:27:51.206Z,1.02
2016-03-18T03:28:51.209Z,1.02
2016-03-18T03:29:51.181Z,1.11
2016-03-18T03:30:51.167Z,0.98
2016-03-18T03:31:51.170Z,1.06
2016-03-18T03:32:51.205Z,1.04
2016-03-18T03:33:51.129Z,1.08
2016-03-18T03:34:51.164Z,1.05
2016-03-18T03:35:51.119Z,1.02
2016-03-18T03:36:51.122Z,1.04
2016-03-18T03:37:51.093Z,1.02
2016-03-18T03:38:51.111Z,0.94
2016-03-18T03:39:50.926Z,1.02
2016-03-18T03:40:51.069Z,1
2016-03-18T03:41:51.057Z,0.96
2016-03-18T03:43:05.234Z,0.97
2016-03-18T03:43:51.187Z,1.02
2016-03-18T03:44:51.440Z,0.97
2016-03-18T03:45:51.115Z,0.91
2016-03-18T03:46:51.493Z,0.91
2016-03-18T03:47:51.057Z,0.86
2016-03-18T03:48:52.482Z,0.87
2016-03-18T03:49:50.969Z,0.88
2016-03-18T03:50:50.957Z,0.79
2016-03-18T03:51:51.631Z,0.84
2016-03-18T03:53:05.102Z,0.73
2016-03-18T03:54:05.498Z,0.87
2016-03-18T03:54:50.920Z,0.86
2016-03-18T03:56:06.472Z,0.86
2016-03-18T03:56:52.159Z,0.79
2016-03-18T03:57:52.553Z,0.86
2016-03-18T03:58:50.852Z,0.88
2016-03-18T03:59:51.777Z,0.91
2016-03-18T04:00:50.842Z,0.83
2016-03-18T04:01:51.126Z,0.83
2016-03-18T04:02:50.817Z,0.78
2016-03-18T04:03:50.803Z,0.78
2016-03-18T04:04:50.806Z,0.83
2016-03-18T04:05:50.778Z,0.78
2016-03-18T04:06:50.780Z,0.72
2016-03-18T04:07:50.743Z,0.78
2016-03-18T04:08:50.746Z,0.76
2016-03-18T04:09:50.732Z,0.76
2016-03-18T04:10:50.735Z,0.76
2016-03-18T04:11:50.707Z,0.73
2016-03-18T04:12:50.725Z,0.75
2016-03-18T04:13:50.697Z,0.76
2016-03-18T04:14:50.684Z,0.72
2016-03-18T04:15:50.671Z,0.78
2016-03-18T04:16:50.658Z,0.83
2016-03-18T04:17:50.661Z,0.83
2016-03-18T04:18:50.491Z,0.76
2016-03-18T04:19:50.603Z,0.76
2016-03-18T04:20:50.637Z,0.8
2016-03-18T04:21:50.593Z,0.78
2016-03-18T04:22:50.611Z,0.75
2016-03-18T04:23:50.566Z,0.78
2016-03-18T04:24:50.585Z,0.8
2016-03-18T04:25:50.525Z,0.73
2016-03-18T04:26:50.544Z,0.73
2016-03-18T04:27:50.530Z,0.75
2016-03-18T04:28:50.550Z,0.8
2016-03-18T04:29:50.505Z,0.75
2016-03-18T04:30:50.493Z,0.76
2016-03-18T04:31:50.495Z,0.84
2016-03-18T04:32:50.482Z,0.79
2016-03-18T04:33:50.453Z,0.79
2016-03-18T04:34:50.471Z,0.84
2016-03-18T04:35:50.443Z,0.76
2016-03-18T04:36:50.415Z,0.78
2016-03-18T04:37:50.448Z,0.76
2016-03-18T04:38:50.420Z,0.78
2016-03-18T04:39:50.391Z,0.76
2016-03-18T04:40:50.379Z,0.86
2016-03-18T04:41:50.381Z,0.78
2016-03-18T04:42:50.337Z,0.8
2016-03-18T04:43:50.339Z,0.8
2016-03-18T04:44:50.343Z,0.87
2016-03-18T04:45:50.314Z,0.86
2016-03-18T04:46:50.301Z,0.88
2016-03-18T04:47:50.303Z,0.8
2016-03-18T04:48:50.275Z,0.83
2016-03-18T04:49:50.262Z,0.93
2016-03-18T04:50:50.265Z,0.86
2016-03-18T04:51:50.252Z,0.88
2016-03-18T04:52:50.255Z,0.78
2016-03-18T04:53:50.241Z,0.91
2016-03-18T04:54:50.228Z,0.87
2016-03-18T04:55:50.216Z,0.86
2016-03-18T04:56:50.188Z,0.9
2016-03-18T04:57:50.205Z,0.96
2016-03-18T04:58:50.161Z,0.8
2016-03-18T04:59:50.180Z,0.84
2016-03-18T05:00:50.136Z,0.83
2016-03-18T05:01:50.138Z,0.79
2016-03-18T05:02:51.437Z,0.93
2016-03-18T05:03:50.127Z,0.87
2016-03-18T05:04:50.099Z,0.87
2016-03-18T05:05:50.587Z,0.86
2016-03-18T05:06:50.104Z,0.84
2016-03-18T05:07:49.920Z,0.87
2016-03-18T05:08:50.062Z,0.86
2016-03-18T05:09:50.034Z,0.91
2016-03-18T05:10:50.412Z,0.93
2016-03-18T05:11:50.024Z,0.97
2016-03-18T05:12:50.105Z,0.94
2016-03-18T05:13:50.546Z,0.94
2016-03-18T05:14:50.282Z,0.94
2016-03-18T05:15:51.410Z,1.09
2016-03-18T05:16:51.179Z,1.04
2016-03-18T05:17:50.915Z,1.04
2016-03-18T05:18:50.793Z,1.14
2016-03-18T05:19:49.921Z,1.12
2016-03-18T05:20:50.048Z,1.29
2016-03-18T05:21:49.911Z,1.33
2016-03-18T05:22:49.913Z,1.42
2016-03-18T05:23:49.885Z,1.47
2016-03-18T05:24:49.888Z,1.63
2016-03-18T05:25:49.858Z,1.72
2016-03-18T05:26:49.861Z,1.81
2016-03-18T05:27:49.848Z,1.91
2016-03-18T05:28:49.851Z,2.03
2016-03-18T05:29:49.807Z,2.1
2016-03-18T05:30:49.810Z,2.25
2016-03-18T05:31:49.781Z,2.34
2016-03-18T05:32:49.799Z,2.41
2016-03-18T05:33:49.755Z,2.52
2016-03-18T05:34:49.758Z,2.6
2016-03-18T05:35:49.746Z,2.71
2016-03-18T05:36:49.749Z,2.79
2016-03-18T05:37:49.563Z,2.82
2016-03-18T05:38:49.738Z,2.93
2016-03-18T05:39:49.724Z,2.97
2016-03-18T05:40:49.711Z,3.05
2016-03-18T05:41:49.683Z,3.13
2016-03-18T05:42:49.686Z,3.2
2016-03-18T05:43:49.657Z,3.35
2016-03-18T05:44:49.660Z,3.31
2016-03-18T05:45:49.631Z,3.33
2016-03-18T05:46:49.634Z,3.39
2016-03-18T05:47:49.605Z,3.42
2016-03-18T05:48:49.609Z,3.57
2016-03-18T05:49:49.595Z,3.54
2016-03-18T05:50:49.583Z,3.65
2016-03-18T05:51:49.585Z,3.75
2016-03-18T05:52:49.556Z,3.7
2016-03-18T05:53:49.544Z,3.72
2016-03-18T05:54:49.562Z,3.76
2016-03-18T05:55:49.549Z,3.8
2016-03-18T05:56:49.536Z,3.88
2016-03-18T05:57:49.508Z,3.91
2016-03-18T05:58:49.526Z,3.88
2016-03-18T05:59:49.513Z,3.91
2016-03-18T06:00:49.499Z,3.94
2016-03-18T06:01:49.487Z,3.97
2016-03-18T06:02:49.474Z,4.09
2016-03-18T06:03:49.461Z,4.06
2016-03-18T06:04:49.448Z,4.02
2016-03-18T06:05:49.451Z,4.14
2016-03-18T06:06:49.437Z,4.12
2016-03-18T06:07:49.424Z,4.12
2016-03-18T06:08:49.412Z,4.12
2016-03-18T06:09:49.399Z,4.18
2016-03-18T06:10:49.401Z,4.22
2016-03-18T06:11:49.389Z,4.18
2016-03-18T06:12:49.392Z,4.23
2016-03-18T06:13:49.363Z,4.18
2016-03-18T06:14:49.381Z,4.16
2016-03-18T06:15:49.353Z,4.23
2016-03-18T06:16:49.356Z,4.22
2016-03-18T06:17:49.327Z,4.14
2016-03-18T06:18:49.329Z,4.2
2016-03-18T06:19:49.316Z,4.27
2016-03-18T06:20:50.366Z,4.24
2016-03-18T06:21:49.291Z,4.33
2016-03-18T06:22:49.387Z,4.36
2016-03-18T06:23:49.436Z,4.29
2016-03-18T06:24:49.267Z,4.34
2016-03-18T06:25:51.161Z,4.36
2016-03-18T06:26:49.883Z,4.4
2016-03-18T06:27:50.353Z,4.52
2016-03-18T06:28:49.231Z,4.51
2016-03-18T06:29:50.468Z,4.48
2016-03-18T06:31:03.409Z,4.5
2016-03-18T06:31:50.208Z,4.48
2016-03-18T06:32:49.508Z,4.54
2016-03-18T06:33:50.713Z,4.48
2016-03-18T06:34:50.451Z,4.52
2016-03-18T06:35:50.532Z,4.55
2016-03-18T06:36:50.363Z,4.7
2016-03-18T06:37:50.084Z,4.66
2016-03-18T06:38:49.133Z,4.58
2016-03-18T06:39:49.355Z,4.65
2016-03-18T06:40:49.123Z,4.72
2016-03-18T06:41:49.126Z,4.73
2016-03-18T06:42:49.112Z,4.88
2016-03-18T06:43:49.116Z,4.82
2016-03-18T06:44:49.087Z,4.86
2016-03-18T06:45:49.090Z,4.89
2016-03-18T06:46:49.076Z,4.84
2016-03-18T06:47:49.079Z,4.84
2016-03-18T06:48:49.051Z,4.86
2016-03-18T06:49:49.054Z,4.91
2016-03-18T06:50:49.212Z,4.91
2016-03-18T06:51:49.012Z,4.94
2016-03-18T06:52:49.031Z,4.94
2016-03-18T06:53:49.018Z,4.96
2016-03-18T06:54:49.005Z,4.94
2016-03-18T06:55:49.008Z,5.02
2016-03-18T06:56:48.983Z,5.02
2016-03-18T06:57:48.974Z,4.99
2016-03-18T06:58:48.933Z,5.02
2016-03-18T06:59:48.923Z,5.09
2016-03-18T07:00:48.882Z,5.15
2016-03-18T07:01:48.879Z,5.15
2016-03-18T07:02:48.863Z,5.21
2016-03-18T07:03:48.861Z,5.21
2016-03-18T07:04:48.828Z,5.24
2016-03-18T07:05:48.842Z,5.31
2016-03-18T07:06:48.828Z,5.33
2016-03-18T07:07:48.813Z,5.28
2016-03-18T07:08:48.799Z,5.4
2016-03-18T07:09:48.800Z,5.25
2016-03-18T07:10:48.786Z,5.3
2016-03-18T07:11:48.772Z,5.25
2016-03-18T07:12:48.759Z,5.17
2016-03-18T07:13:48.746Z,5.28
2016-03-18T07:14:48.748Z,5.35
2016-03-18T07:15:48.719Z,5.4
2016-03-18T07:16:48.736Z,5.4
2016-03-18T07:17:48.724Z,5.38
2016-03-18T07:18:48.554Z,5.36
2016-03-18T07:19:48.696Z,5.33
2016-03-18T07:20:48.698Z,5.24
2016-03-18T07:21:48.702Z,5.24
2016-03-18T07:22:48.673Z,5.27
2016-03-18T07:23:48.692Z,5.31
2016-03-18T07:24:48.662Z,5.36
2016-03-18T07:25:48.665Z,5.31
2016-03-18T07:26:48.653Z,5.35
2016-03-18T07:27:48.640Z,5.31
2016-03-18T07:28:48.628Z,5.22
2016-03-18T07:29:48.614Z,5.13
2016-03-18T07:30:48.616Z,5.13
2016-03-18T07:31:48.589Z,5.17
2016-03-18T07:32:48.591Z,5.24
2016-03-18T07:33:48.594Z,5.38
2016-03-18T07:34:48.580Z,5.35
2016-03-18T07:35:48.583Z,5.42
2016-03-18T07:36:48.570Z,5.53
2016-03-18T07:37:48.573Z,5.51
2016-03-18T07:38:48.544Z,5.64
2016-03-18T07:39:48.547Z,5.65
2016-03-18T07:40:49.284Z,5.68
2016-03-18T07:41:48.521Z,5.72
2016-03-18T07:42:48.524Z,5.83
2016-03-18T07:43:48.510Z,5.86
2016-03-18T07:44:48.498Z,5.86
2016-03-18T07:45:49.719Z,5.96
2016-03-18T07:46:48.471Z,5.83
2016-03-18T07:47:48.475Z,5.89
2016-03-18T07:48:48.462Z,5.97
2016-03-18T07:49:49.402Z,6.06
2016-03-18T07:50:49.139Z,6.04
2016-03-18T07:51:48.454Z,6.15
2016-03-18T07:53:03.660Z,6.17
2016-03-18T07:53:50.225Z,6.25
2016-03-18T07:54:48.415Z,6.19
2016-03-18T07:55:48.403Z,6.28
2016-03-18T07:56:49.406Z,6.25
2016-03-18T07:57:48.924Z,6.21
2016-03-18T07:58:48.411Z,6.22
2016-03-18T07:59:48.772Z,6.25
2016-03-18T08:00:48.385Z,6.3
2016-03-18T08:01:48.372Z,6.27
2016-03-18T08:02:48.359Z,6.34
2016-03-18T08:03:48.378Z,6.38
2016-03-18T08:04:48.349Z,6.33
2016-03-18T08:05:48.352Z,6.38
2016-03-18T08:06:48.322Z,6.43
2016-03-18T08:07:48.326Z,6.46
2016-03-18T08:08:48.297Z,6.48
2016-03-18T08:09:48.315Z,6.51
2016-03-18T08:10:48.318Z,6.48
2016-03-18T08:11:48.321Z,6.49
2016-03-18T08:12:48.291Z,6.52
2016-03-18T08:13:48.294Z,6.59
2016-03-18T08:14:48.329Z,6.66
2016-03-18T08:15:48.268Z,6.58
2016-03-18T08:16:48.272Z,6.49
2016-03-18T08:17:48.274Z,6.38
2016-03-18T08:18:48.230Z,6.37
2016-03-18T08:19:48.217Z,6.37
2016-03-18T08:20:48.235Z,6.37
2016-03-18T08:21:48.223Z,6.41
2016-03-18T08:22:48.225Z,6.46
2016-03-18T08:23:48.196Z,6.43
2016-03-18T08:24:48.215Z,6.36
2016-03-18T08:25:48.201Z,6.36
2016-03-18T08:26:48.174Z,6.46
2016-03-18T08:27:48.192Z,6.51
2016-03-18T08:28:48.163Z,6.55
2016-03-18T08:29:48.182Z,6.69
2016-03-18T08:30:48.153Z,6.71
2016-03-18T08:31:48.156Z,6.76
2016-03-18T08:32:48.158Z,6.84
2016-03-18T08:33:48.145Z,6.88
2016-03-18T08:34:48.147Z,6.85
2016-03-18T08:35:48.136Z,6.85
2016-03-18T08:36:48.122Z,6.98
2016-03-18T08:37:48.125Z,6.97
2016-03-18T08:38:48.111Z,6.99
2016-03-18T08:39:48.099Z,6.98
2016-03-18T08:40:48.086Z,7.07
2016-03-18T08:41:48.088Z,7.06
2016-03-18T08:42:48.076Z,7.17
2016-03-18T08:43:48.063Z,7.27
2016-03-18T08:44:48.066Z,7.31
2016-03-18T08:45:48.053Z,7.31
2016-03-18T08:46:48.071Z,7.39
2016-03-18T08:47:48.057Z,7.43
2016-03-18T08:48:48.030Z,7.4
2016-03-18T08:49:48.048Z,7.45
2016-03-18T08:50:48.018Z,7.43
2016-03-18T08:51:48.022Z,7.24
2016-03-18T08:52:48.009Z,7.31
2016-03-18T08:53:47.996Z,7.28
2016-03-18T08:54:47.999Z,7.28
2016-03-18T08:55:48.017Z,7.3
2016-03-18T08:56:47.988Z,7.28
2016-03-18T08:57:47.976Z,7.37
2016-03-18T08:58:48.994Z,7.53
2016-03-18T08:59:47.808Z,7.52
2016-03-18T09:00:48.436Z,7.46
2016-03-18T09:01:48.627Z,7.49
2016-03-18T09:02:48.161Z,7.46
2016-03-18T09:03:47.945Z,7.63
2016-03-18T09:04:47.931Z,7.55
2016-03-18T09:05:47.934Z,7.57
2016-03-18T09:06:48.469Z,7.5
2016-03-18T09:07:50.236Z,7.39
2016-03-18T09:08:48.005Z,7.4
2016-03-18T09:09:47.898Z,7.3
2016-03-18T09:10:48.073Z,7.39
2016-03-18T09:11:49.294Z,7.42
2016-03-18T09:13:02.485Z,7.57
2016-03-18T09:13:48.441Z,7.55
2016-03-18T09:14:48.646Z,7.52
2016-03-18T09:15:47.868Z,7.63
2016-03-18T09:16:48.496Z,7.68
2016-03-18T09:17:47.857Z,7.74
2016-03-18T09:18:47.844Z,7.69
2016-03-18T09:19:47.831Z,7.6
2016-03-18T09:20:47.834Z,7.58
2016-03-18T09:21:47.852Z,7.58
2016-03-18T09:22:47.824Z,7.67
2016-03-18T09:23:47.842Z,7.67
2016-03-18T09:24:47.829Z,7.63
2016-03-18T09:25:47.801Z,7.6
2016-03-18T09:26:47.803Z,7.68
2016-03-18T09:27:47.806Z,7.6
2016-03-18T09:28:47.793Z,7.57
2016-03-18T09:29:47.781Z,7.55
2016-03-18T09:30:47.830Z,7.45
2016-03-18T09:31:47.770Z,7.48
2016-03-18T09:32:48.070Z,7.43
2016-03-18T09:33:48.572Z,7.45
2016-03-18T09:34:47.762Z,7.57
2016-03-18T09:35:47.733Z,7.49
2016-03-18T09:36:47.753Z,7.61
2016-03-18T09:37:47.739Z,7.75
2016-03-18T09:38:47.758Z,7.74
2016-03-18T09:39:47.713Z,7.74
2016-03-18T09:40:47.732Z,7.82
2016-03-18T09:41:47.703Z,7.85
2016-03-18T09:42:47.721Z,7.89
2016-03-18T09:43:47.693Z,7.9
2016-03-18T09:44:47.696Z,8
2016-03-18T09:45:47.682Z,8
2016-03-18T09:46:47.686Z,8.01
2016-03-18T09:47:47.672Z,7.98
2016-03-18T09:48:47.674Z,8.02
2016-03-18T09:49:47.678Z,8.02
2016-03-18T09:50:47.665Z,8.02
2016-03-18T09:51:47.682Z,8.18
2016-03-18T09:52:47.655Z,8.15
2016-03-18T09:53:47.642Z,8.29
2016-03-18T09:54:47.645Z,8.34
2016-03-18T09:55:47.632Z,8.38
2016-03-18T09:56:47.618Z,8.44
2016-03-18T09:57:47.606Z,8.5
2016-03-18T09:58:47.623Z,8.47
2016-03-18T09:59:47.595Z,8.43
2016-03-18T10:00:47.613Z,8.52
2016-03-18T10:01:47.600Z,8.47
2016-03-18T10:02:47.619Z,8.43
2016-03-18T10:03:47.606Z,8.47
2016-03-18T10:04:47.608Z,8.55
2016-03-18T10:05:47.581Z,8.62
2016-03-18T10:06:47.583Z,8.58
2016-03-18T10:07:47.569Z,8.56
2016-03-18T10:08:47.558Z,8.52
2016-03-18T10:09:47.560Z,8.4
2016-03-18T10:10:47.547Z,8.29
2016-03-18T10:11:47.566Z,8.38
2016-03-18T10:12:47.568Z,8.36
2016-03-18T10:13:47.555Z,8.3
2016-03-18T10:14:47.541Z,8.44
2016-03-18T10:15:47.544Z,8.53
2016-03-18T10:16:47.532Z,8.61
2016-03-18T10:17:47.518Z,8.68
2016-03-18T10:18:48.803Z,8.81
2016-03-18T10:19:47.508Z,8.87
2016-03-18T10:20:47.496Z,8.92
2016-03-18T10:21:48.154Z,8.95
2016-03-18T10:22:47.704Z,9.04
2016-03-18T10:23:47.472Z,9.04
2016-03-18T10:24:48.209Z,9.02
2016-03-18T10:25:48.009Z,9.01
2016-03-18T10:26:48.589Z,8.98
2016-03-18T10:27:48.999Z,8.94
2016-03-18T10:28:48.236Z,9.02
2016-03-18T10:29:47.707Z,9.02
2016-03-18T10:30:48.459Z,9.1
2016-03-18T10:31:47.462Z,9.02
2016-03-18T10:32:47.996Z,9.01
2016-03-18T10:33:48.171Z,8.96
2016-03-18T10:34:48.034Z,9.05
2016-03-18T10:35:47.442Z,9.04
2016-03-18T10:36:47.945Z,9.01
2016-03-18T10:37:47.510Z,8.95
2016-03-18T10:38:47.403Z,9.01
2016-03-18T10:39:47.406Z,9.01
2016-03-18T10:40:47.408Z,8.99
2016-03-18T10:41:47.396Z,9.08
2016-03-18T10:42:47.399Z,8.99
2016-03-18T10:43:47.386Z,9.08
2016-03-18T10:44:47.388Z,9.04
2016-03-18T10:45:47.391Z,9.08
2016-03-18T10:46:47.377Z,9.28
2016-03-18T10:47:47.365Z,9.17
2016-03-18T10:48:47.352Z,9.24
2016-03-18T10:49:47.370Z,9.26
2016-03-18T10:50:47.342Z,9.33
2016-03-18T10:51:47.360Z,9.33
2016-03-18T10:52:47.346Z,9.39
2016-03-18T10:53:47.350Z,9.43
2016-03-18T10:54:47.321Z,9.42
2016-03-18T10:55:47.324Z,9.38
2016-03-18T10:56:47.327Z,9.46
2016-03-18T10:57:47.329Z,9.43
2016-03-18T10:58:47.332Z,9.46
2016-03-18T10:59:47.320Z,9.38
2016-03-18T11:00:47.322Z,9.5
2016-03-18T11:01:47.309Z,9.5
2016-03-18T11:02:47.328Z,9.47
2016-03-18T11:03:47.298Z,9.65
2016-03-18T11:04:47.317Z,9.61
2016-03-18T11:05:47.273Z,9.6
2016-03-18T11:06:47.291Z,9.58
2016-03-18T11:07:47.278Z,9.58
2016-03-18T11:08:47.265Z,9.48
2016-03-18T11:09:47.267Z,9.58
2016-03-18T11:10:47.270Z,9.61
2016-03-18T11:11:47.258Z,9.65
2016-03-18T11:12:47.275Z,9.71
2016-03-18T11:13:47.263Z,9.71
2016-03-18T11:14:47.250Z,9.66
2016-03-18T11:15:47.253Z,9.78
2016-03-18T11:16:47.255Z,9.87
2016-03-18T11:17:47.243Z,9.86
2016-03-18T11:18:47.246Z,9.91
2016-03-18T11:19:47.232Z,9.86
2016-03-18T11:20:47.235Z,9.96
2016-03-18T11:21:47.207Z,10.02
2016-03-18T11:22:47.225Z,9.94
2016-03-18T11:23:47.196Z,9.99
2016-03-18T11:24:47.215Z,9.91
2016-03-18T11:25:47.201Z,9.84
2016-03-18T11:26:47.204Z,9.75
2016-03-18T11:27:47.207Z,9.71
2016-03-18T11:28:47.226Z,9.75
2016-03-18T11:29:47.181Z,9.78
2016-03-18T11:30:47.183Z,9.83
2016-03-18T11:31:47.187Z,9.86
2016-03-18T11:32:47.173Z,9.96
2016-03-18T11:33:47.176Z,10.05
2016-03-18T11:34:47.163Z,10.15
2016-03-18T11:35:47.166Z,10.12
2016-03-18T11:37:01.340Z,10.2
2016-03-18T11:37:47.624Z,10.32
2016-03-18T11:38:47.767Z,10.26
2016-03-18T11:39:48.036Z,10.38
2016-03-18T11:40:48.680Z,10.44
2016-03-18T11:41:48.416Z,10.55
2016-03-18T11:42:47.528Z,10.61
2016-03-18T11:43:47.141Z,10.64
2016-03-18T11:44:47.128Z,10.76
2016-03-18T11:45:47.161Z,10.7
2016-03-18T11:46:47.367Z,10.74
2016-03-18T11:47:47.120Z,10.79
2016-03-18T11:48:47.169Z,10.78
2016-03-18T11:49:47.922Z,10.74
2016-03-18T11:50:47.831Z,10.74
2016-03-18T11:51:48.631Z,10.79
2016-03-18T11:52:47.102Z,10.79
2016-03-18T11:53:47.948Z,10.84
2016-03-18T11:54:47.732Z,10.88
2016-03-18T11:55:47.391Z,10.85
2016-03-18T11:56:47.113Z,10.89
2016-03-18T11:57:47.090Z,10.86
2016-03-18T11:58:47.092Z,10.86
2016-03-18T11:59:47.095Z,10.92
2016-03-18T12:00:47.081Z,11
2016-03-18T12:01:47.084Z,11.04
2016-03-18T12:02:47.072Z,11.03
2016-03-18T12:03:47.074Z,11.06
2016-03-18T12:04:47.061Z,11.18
2016-03-18T12:05:47.080Z,11.17
2016-03-18T12:06:47.067Z,11.19
2016-03-18T12:07:47.070Z,11.33
2016-03-18T12:08:46.900Z,11.28
2016-03-18T12:09:47.059Z,11.24
2016-03-18T12:10:47.061Z,11.27
2016-03-18T12:11:47.064Z,11.35
2016-03-18T12:12:47.067Z,11.36
2016-03-18T12:13:47.038Z,11.4
2016-03-18T12:14:47.057Z,11.49
2016-03-18T12:15:47.027Z,11.51
2016-03-18T12:16:47.047Z,11.46
2016-03-18T12:17:47.033Z,11.51
2016-03-18T12:18:47.052Z,11.46
2016-03-18T12:19:47.055Z,11.47
2016-03-18T12:20:47.057Z,11.49
2016-03-18T12:21:47.013Z,11.49
2016-03-18T12:22:47.032Z,11.54
2016-03-18T12:23:47.019Z,11.49
2016-03-18T12:24:47.021Z,11.49
2016-03-18T12:25:47.040Z,11.42
2016-03-18T12:26:46.995Z,11.36
2016-03-18T12:27:46.998Z,11.28
2016-03-18T12:28:47.017Z,11.35
2016-03-18T12:29:46.987Z,11.27
2016-03-18T12:30:47.006Z,11.09
2016-03-18T12:31:47.009Z,11.11
2016-03-18T12:32:47.012Z,11.14
2016-03-18T12:33:46.983Z,11.11
2016-03-18T12:34:47.017Z,11.04
2016-03-18T12:35:46.989Z,11.09
2016-03-18T12:36:47.007Z,11.14
2016-03-18T12:37:46.978Z,11.27
2016-03-18T12:38:46.997Z,11.28
2016-03-18T12:39:46.983Z,11.35
2016-03-18T12:40:47.017Z,11.32
2016-03-18T12:41:46.989Z,11.37
2016-03-18T12:42:46.992Z,11.33
2016-03-18T12:43:46.964Z,11.39
2016-03-18T12:44:46.981Z,11.43
2016-03-18T12:45:46.953Z,11.51
2016-03-18T12:46:46.971Z,11.51
2016-03-18T12:47:46.958Z,11.65
2016-03-18T12:48:46.977Z,11.55
2016-03-18T12:49:46.948Z,11.61
2016-03-18T12:50:46.982Z,11.6
2016-03-18T12:51:46.954Z,11.67
2016-03-18T12:52:46.972Z,11.79
2016-03-18T12:53:46.943Z,11.88
2016-03-18T12:54:46.962Z,11.94
2016-03-18T12:55:47.167Z,12.04
2016-03-18T12:57:01.123Z,12.17
2016-03-18T12:57:46.923Z,12.14
2016-03-18T12:58:46.957Z,12.2
2016-03-18T12:59:48.975Z,12.27
2016-03-18T13:00:48.728Z,12.23
2016-03-18T13:01:47.855Z,12.13
2016-03-18T13:02:46.936Z,12.2
2016-03-18T13:03:47.047Z,12.12
2016-03-18T13:04:49.239Z,12.12
2016-03-18T13:06:01.569Z,12.09
2016-03-18T13:07:01.103Z,12.13
2016-03-18T13:07:47.653Z,12.07
2016-03-18T13:08:47.967Z,12.21
2016-03-18T13:09:48.378Z,12.04
2016-03-18T13:10:46.912Z,12.05
2016-03-18T13:11:46.914Z,12.07
2016-03-18T13:12:46.964Z,12.04
2016-03-18T13:13:47.310Z,12.01
2016-03-18T13:14:46.906Z,12.1
2016-03-18T13:15:47.034Z,12.12
2016-03-18T13:16:46.911Z,11.99
2016-03-18T13:17:46.914Z,11.94
2016-03-18T13:18:46.902Z,11.82
2016-03-18T13:19:46.920Z,11.96
2016-03-18T13:20:46.892Z,12.01